createdAt,value
2019-01-15T00:00:11.396Z,15.28
2019-01-15T00:01:16.154Z,9.60
2019-01-15T00:02:20.869Z,16.20
2019-01-15T00:03:27.244Z,13.72
2019-01-15T00:04:34.870Z,20.95
2019-01-15T00:05:40.165Z,16.90
2019-01-15T00:06:45.035Z,12.35
2019-01-15T00:07:49.995Z,28.50
2019-01-15T00:08:54.858Z,20.75
2019-01-15T00:09:59.676Z,15.00
2019-01-15T00:11:04.599Z,14.95
2019-01-15T00:12:09.770Z,14.65
2019-01-15T00:13:14.504Z,15.58
2019-01-15T00:14:19.339Z,17.48
2019-01-15T00:15:24.183Z,14.87
2019-01-15T00:16:28.968Z,17.10
2019-01-15T00:17:33.758Z,14.60
2019-01-15T00:18:42.769Z,21.35
2019-01-15T00:19:47.635Z,14.07
2019-01-15T00:20:55.797Z,21.60
2019-01-15T00:22:00.819Z,20.65
2019-01-15T00:23:05.580Z,21.45
2019-01-15T00:24:10.362Z,15.60
2019-01-15T00:25:15.265Z,25.65
2019-01-15T00:26:20.056Z,16.50
2019-01-15T00:27:27.184Z,12.78
2019-01-15T00:28:31.977Z,14.70
2019-01-15T00:29:36.729Z,16.42
2019-01-15T00:30:44.148Z,15.28
2019-01-15T00:31:48.976Z,20.08
2019-01-15T00:32:53.964Z,13.90
2019-01-15T00:33:58.817Z,23.62
2019-01-15T00:35:03.584Z,15.50
2019-01-15T00:36:10.070Z,16.25
2019-01-15T00:37:14.852Z,21.42
2019-01-15T00:38:19.576Z,17.45
2019-01-15T00:39:24.353Z,17.65
2019-01-15T00:40:29.137Z,19.23
2019-01-15T00:41:34.024Z,24.82
2019-01-15T00:42:38.840Z,17.17
2019-01-15T00:43:43.852Z,13.65
2019-01-15T00:44:48.613Z,15.70
2019-01-15T00:45:55.621Z,18.95
2019-01-15T00:47:00.483Z,19.50
2019-01-15T00:48:05.538Z,22.27
2019-01-15T00:49:10.296Z,17.45
2019-01-15T00:50:16.314Z,20.70
2019-01-15T00:51:21.080Z,15.80
2019-01-15T00:52:27.825Z,18.35
2019-01-15T00:53:32.335Z,22.62
2019-01-15T00:54:37.087Z,21.27
2019-01-15T00:55:41.804Z,14.18
2019-01-15T00:56:47.317Z,15.60
2019-01-15T00:57:56.816Z,13.08
2019-01-15T00:59:04.267Z,14.73
2019-01-15T01:00:18.981Z,24.87
2019-01-15T01:01:23.801Z,17.90
2019-01-15T01:02:29.047Z,9.45
2019-01-15T01:03:33.816Z,12.35
2019-01-15T01:04:38.674Z,13.18
2019-01-15T01:05:43.720Z,14.90
2019-01-15T01:06:48.721Z,15.85
2019-01-15T01:07:53.625Z,11.78
2019-01-15T01:08:59.021Z,19.05
2019-01-15T01:10:04.228Z,10.38
2019-01-15T01:11:09.884Z,12.07
2019-01-15T01:12:14.771Z,17.85
2019-01-15T01:13:19.587Z,13.80
2019-01-15T01:14:24.747Z,11.83
2019-01-15T01:15:29.520Z,20.92
2019-01-15T01:16:34.256Z,16.45
2019-01-15T01:17:39.075Z,18.32
2019-01-15T01:18:45.918Z,22.15
2019-01-15T01:19:50.665Z,12.93
2019-01-15T01:20:55.879Z,13.00
2019-01-15T01:22:00.660Z,14.60
2019-01-15T01:23:05.712Z,16.30
2019-01-15T01:24:10.554Z,20.40
2019-01-15T01:25:15.709Z,10.82
2019-01-15T01:26:20.512Z,12.45
2019-01-15T01:27:25.814Z,11.05
2019-01-15T01:28:30.666Z,20.82
2019-01-15T01:29:35.473Z,17.65
2019-01-15T01:30:40.387Z,21.70
2019-01-15T01:31:45.236Z,12.85
2019-01-15T01:32:50.175Z,12.45
2019-01-15T01:33:55.742Z,29.95
2019-01-15T01:35:00.736Z,14.33
2019-01-15T01:36:05.741Z,11.45
2019-01-15T01:37:10.544Z,8.38
2019-01-15T01:38:15.293Z,11.12
2019-01-15T01:39:20.085Z,10.90
2019-01-15T01:40:25.160Z,15.23
2019-01-15T01:41:29.924Z,24.92
2019-01-15T01:42:34.685Z,22.73
2019-01-15T01:43:39.386Z,16.00
2019-01-15T01:44:44.169Z,16.77
2019-01-15T01:45:48.950Z,11.68
2019-01-15T01:46:53.744Z,15.78
2019-01-15T01:47:58.546Z,11.73
2019-01-15T01:49:03.240Z,23.77
2019-01-15T01:50:09.007Z,17.02
2019-01-15T01:51:13.807Z,18.42
2019-01-15T01:52:18.544Z,21.57
2019-01-15T01:53:23.270Z,18.12
2019-01-15T01:54:28.035Z,12.85
2019-01-15T01:55:32.832Z,23.02
2019-01-15T01:56:37.548Z,15.13
2019-01-15T01:57:42.271Z,19.95
2019-01-15T01:58:47.043Z,16.30
2019-01-15T01:59:51.841Z,23.95
2019-01-15T02:00:59.128Z,14.85
2019-01-15T02:02:04.035Z,12.65
2019-01-15T02:03:14.756Z,19.35
2019-01-15T02:04:19.520Z,18.12
2019-01-15T02:05:26.827Z,17.70
2019-01-15T02:06:35.046Z,17.37
2019-01-15T02:07:39.780Z,20.80
2019-01-15T02:08:44.522Z,14.43
2019-01-15T02:09:49.524Z,16.62
2019-01-15T02:10:56.157Z,25.80
2019-01-15T02:12:04.283Z,18.32
2019-01-15T02:13:11.785Z,17.52
2019-01-15T02:14:16.529Z,15.93
2019-01-15T02:15:23.665Z,17.48
2019-01-15T02:16:28.760Z,21.17
2019-01-15T02:17:34.950Z,24.52
2019-01-15T02:18:39.692Z,17.60
2019-01-15T02:19:44.463Z,18.25
2019-01-15T02:20:49.136Z,19.10
2019-01-15T02:21:53.950Z,15.93
2019-01-15T02:22:58.974Z,14.80
2019-01-15T02:24:03.899Z,22.48
2019-01-15T02:25:09.022Z,20.27
2019-01-15T02:26:13.781Z,16.35
2019-01-15T02:27:18.881Z,22.80
2019-01-15T02:28:23.596Z,16.35
2019-01-15T02:29:28.457Z,24.63
2019-01-15T02:30:33.270Z,17.37
2019-01-15T02:31:38.041Z,20.37
2019-01-15T02:32:42.816Z,15.50
2019-01-15T02:33:47.647Z,23.15
2019-01-15T02:34:52.383Z,17.65
2019-01-15T02:35:57.247Z,25.80
2019-01-15T02:37:02.000Z,13.22
2019-01-15T02:38:06.761Z,15.80
2019-01-15T02:39:11.521Z,21.75
2019-01-15T02:40:16.574Z,13.68
2019-01-15T02:41:21.362Z,19.42
2019-01-15T02:42:26.145Z,20.52
2019-01-15T02:43:31.038Z,25.95
2019-01-15T02:44:35.790Z,21.25
2019-01-15T02:45:40.857Z,14.43
2019-01-15T02:46:45.571Z,16.00
2019-01-15T02:47:54.161Z,31.35
2019-01-15T02:48:58.941Z,15.10
2019-01-15T02:50:06.691Z,26.93
2019-01-15T02:51:11.485Z,14.95
2019-01-15T02:52:18.652Z,23.20
2019-01-15T02:53:26.168Z,20.90
2019-01-15T02:54:30.913Z,24.92
2019-01-15T02:55:35.734Z,15.23
2019-01-15T02:56:40.494Z,19.30
2019-01-15T02:57:45.370Z,18.62
2019-01-15T02:58:50.604Z,14.40
2019-01-15T02:59:55.468Z,17.82
2019-01-15T03:01:00.283Z,13.58
2019-01-15T03:02:05.342Z,13.85
2019-01-15T03:03:13.137Z,15.30
2019-01-15T03:04:18.280Z,17.25
2019-01-15T03:05:23.742Z,18.80
2019-01-15T03:06:28.528Z,24.45
2019-01-15T03:07:33.589Z,14.30
2019-01-15T03:08:38.316Z,15.00
2019-01-15T03:09:46.121Z,15.90
2019-01-15T03:10:51.300Z,20.55
2019-01-15T03:11:56.022Z,19.23
2019-01-15T03:13:03.795Z,14.23
2019-01-15T03:14:08.622Z,16.82
2019-01-15T03:15:13.542Z,19.87
2019-01-15T03:16:18.240Z,14.93
2019-01-15T03:17:23.571Z,16.55
2019-01-15T03:18:28.381Z,17.42
2019-01-15T03:19:33.171Z,16.70
2019-01-15T03:20:38.038Z,28.67
2019-01-15T03:21:42.791Z,21.02
2019-01-15T03:22:47.565Z,19.87
2019-01-15T03:23:55.686Z,18.98
2019-01-15T03:25:00.402Z,15.08
2019-01-15T03:26:05.322Z,18.25
2019-01-15T03:27:10.110Z,21.57
2019-01-15T03:28:14.861Z,30.20
2019-01-15T03:29:19.663Z,23.07
2019-01-15T03:30:25.414Z,17.37
2019-01-15T03:31:30.251Z,19.45
2019-01-15T03:32:35.142Z,19.40
2019-01-15T03:33:39.931Z,16.97
2019-01-15T03:34:44.846Z,21.40
2019-01-15T03:35:49.585Z,32.63
2019-01-15T03:36:54.363Z,23.62
2019-01-15T03:38:02.194Z,19.10
2019-01-15T03:39:09.312Z,24.75
2019-01-15T03:40:17.286Z,17.90
2019-01-15T03:41:22.131Z,12.37
2019-01-15T03:42:27.100Z,21.05
2019-01-15T03:43:31.906Z,13.45
2019-01-15T03:44:36.661Z,17.75
2019-01-15T03:45:41.385Z,14.03
2019-01-15T03:46:46.141Z,21.80
2019-01-15T03:47:50.938Z,19.00
2019-01-15T03:48:55.832Z,20.40
2019-01-15T03:50:00.690Z,19.48
2019-01-15T03:51:05.506Z,23.27
2019-01-15T03:52:10.321Z,16.82
2019-01-15T03:53:15.161Z,21.57
2019-01-15T03:54:19.894Z,23.22
2019-01-15T03:55:24.778Z,20.17
2019-01-15T03:56:29.522Z,19.30
2019-01-15T03:57:34.290Z,16.50
2019-01-15T03:58:39.681Z,25.85
2019-01-15T03:59:44.551Z,18.05
2019-01-15T04:00:49.415Z,21.10
2019-01-15T04:01:54.184Z,18.12
2019-01-15T04:02:58.916Z,14.98
2019-01-15T04:04:03.770Z,16.23
2019-01-15T04:05:09.053Z,17.25
2019-01-15T04:06:13.828Z,22.05
2019-01-15T04:07:19.340Z,19.98
2019-01-15T04:08:24.193Z,14.90
2019-01-15T04:09:29.101Z,17.82
2019-01-15T04:10:33.996Z,18.52
2019-01-15T04:11:39.292Z,19.95
2019-01-15T04:12:44.242Z,18.98
2019-01-15T04:13:49.001Z,28.07
2019-01-15T04:14:53.770Z,24.15
2019-01-15T04:15:58.622Z,22.82
2019-01-15T04:17:03.428Z,19.67
2019-01-15T04:18:08.591Z,12.98
2019-01-15T04:19:13.336Z,19.77
2019-01-15T04:20:18.305Z,17.02
2019-01-15T04:21:23.195Z,17.23
2019-01-15T04:22:28.110Z,19.23
2019-01-15T04:23:32.846Z,11.95
2019-01-15T04:24:37.998Z,17.95
2019-01-15T04:25:42.764Z,14.65
2019-01-15T04:26:47.486Z,18.87
2019-01-15T04:27:52.666Z,11.88
2019-01-15T04:28:57.397Z,15.05
2019-01-15T04:30:02.154Z,14.87
2019-01-15T04:31:06.903Z,13.40
2019-01-15T04:32:11.615Z,13.13
2019-01-15T04:33:16.401Z,13.15
2019-01-15T04:34:21.215Z,13.40
2019-01-15T04:35:25.968Z,17.48
2019-01-15T04:36:30.688Z,18.48
2019-01-15T04:37:35.497Z,16.40
2019-01-15T04:38:40.325Z,13.78
2019-01-15T04:39:45.072Z,10.30
2019-01-15T04:40:49.826Z,16.23
2019-01-15T04:41:54.665Z,15.05
2019-01-15T04:42:59.464Z,14.58
2019-01-15T04:45:40.039Z,11.43
2019-01-15T04:45:44.083Z,14.58
2019-01-15T04:46:48.818Z,14.03
2019-01-15T04:47:53.700Z,18.05
2019-01-15T04:48:58.412Z,12.88
2019-01-15T04:50:03.462Z,16.48
2019-01-15T04:51:08.629Z,11.65
2019-01-15T04:52:13.404Z,11.40
2019-01-15T04:53:18.895Z,13.72
2019-01-15T04:54:23.962Z,18.05
2019-01-15T04:55:28.910Z,18.17
2019-01-15T04:56:34.678Z,21.65
2019-01-15T04:57:39.831Z,23.10
2019-01-15T04:58:46.343Z,19.65
2019-01-15T04:59:51.565Z,14.23
2019-01-15T05:00:56.545Z,17.02
2019-01-15T05:02:01.804Z,18.25
2019-01-15T05:03:08.825Z,19.92
2019-01-15T05:04:13.709Z,22.15
2019-01-15T05:05:21.231Z,19.67
2019-01-15T05:06:26.136Z,20.35
2019-01-15T05:07:31.046Z,21.33
2019-01-15T05:08:36.182Z,20.08
2019-01-15T05:09:40.988Z,21.55
2019-01-15T05:10:45.714Z,22.02
2019-01-15T05:11:50.489Z,17.67
2019-01-15T05:12:55.560Z,21.07
2019-01-15T05:14:00.514Z,18.67
2019-01-15T05:15:07.009Z,19.62
2019-01-15T05:16:11.762Z,21.15
2019-01-15T05:17:16.576Z,24.77
2019-01-15T05:18:21.330Z,18.75
2019-01-15T05:19:26.761Z,27.98
2019-01-15T05:20:31.737Z,20.08
2019-01-15T05:21:39.973Z,22.15
2019-01-15T05:22:44.990Z,20.92
2019-01-15T05:23:52.074Z,19.52
2019-01-15T05:24:56.859Z,21.00
2019-01-15T05:26:01.872Z,26.25
2019-01-15T05:27:06.697Z,19.73
2019-01-15T05:28:12.107Z,21.02
2019-01-15T05:29:16.818Z,23.70
2019-01-15T05:30:26.713Z,19.87
2019-01-15T05:31:31.567Z,31.93
2019-01-15T05:32:36.498Z,19.23
2019-01-15T05:33:41.622Z,23.32
2019-01-15T05:34:46.484Z,22.02
2019-01-15T05:35:51.709Z,25.35
2019-01-15T05:36:56.563Z,23.45
2019-01-15T05:38:01.341Z,19.57
2019-01-15T05:39:08.617Z,21.77
2019-01-15T05:40:16.892Z,19.23
2019-01-15T05:41:21.640Z,18.05
2019-01-15T05:42:26.428Z,30.85
2019-01-15T05:43:35.434Z,19.05
2019-01-15T05:44:37.617Z,28.60
2019-01-15T05:45:45.060Z,16.55
2019-01-15T05:46:49.830Z,20.80
2019-01-15T05:47:55.021Z,22.65
2019-01-15T05:48:59.858Z,21.87
2019-01-15T05:50:05.340Z,18.95
2019-01-15T05:51:26.425Z,21.25
2019-01-15T05:52:32.815Z,23.40
2019-01-15T05:53:37.744Z,16.57
2019-01-15T05:54:43.799Z,22.22
2019-01-15T05:55:48.642Z,26.77
2019-01-15T05:56:53.378Z,21.52
2019-01-15T05:57:58.152Z,24.15
2019-01-15T05:59:02.913Z,27.52
2019-01-15T06:00:09.549Z,19.82
2019-01-15T06:01:14.311Z,20.95
2019-01-15T06:02:19.077Z,22.02
2019-01-15T06:03:23.853Z,21.40
2019-01-15T06:04:30.556Z,21.30
2019-01-15T06:05:35.363Z,17.92
2019-01-15T06:06:40.210Z,33.65
2019-01-15T06:07:45.011Z,17.80
2019-01-15T06:08:49.867Z,17.50
2019-01-15T06:09:54.628Z,21.57
2019-01-15T06:10:59.663Z,19.42
2019-01-15T06:12:06.255Z,18.98
2019-01-15T06:13:10.957Z,21.40
2019-01-15T06:14:15.736Z,26.23
2019-01-15T06:15:20.489Z,18.02
2019-01-15T06:16:25.288Z,20.60
2019-01-15T06:17:30.400Z,18.95
2019-01-15T06:18:35.109Z,22.10
2019-01-15T06:19:39.828Z,15.28
2019-01-15T06:20:48.949Z,20.57
2019-01-15T06:21:53.980Z,22.17
2019-01-15T06:22:58.864Z,18.30
2019-01-15T06:24:03.657Z,21.40
2019-01-15T06:25:08.847Z,20.32
2019-01-15T06:26:15.901Z,16.35
2019-01-15T06:27:20.725Z,17.80
2019-01-15T06:28:27.292Z,17.37
2019-01-15T06:29:37.972Z,23.32
2019-01-15T06:30:42.812Z,22.37
2019-01-15T06:31:47.652Z,25.95
2019-01-15T06:32:52.427Z,17.52
2019-01-15T06:33:57.262Z,15.25
2019-01-15T06:35:02.013Z,14.28
2019-01-15T06:36:06.801Z,13.45
2019-01-15T06:37:11.817Z,21.12
2019-01-15T06:38:16.868Z,17.02
2019-01-15T06:39:21.629Z,19.90
2019-01-15T06:40:26.479Z,17.60
2019-01-15T06:41:31.230Z,23.02
2019-01-15T06:42:36.120Z,17.42
2019-01-15T06:43:41.202Z,22.52
2019-01-15T06:44:46.201Z,18.82
2019-01-15T06:46:02.647Z,17.25
2019-01-15T06:47:13.385Z,20.45
2019-01-15T06:48:19.690Z,20.82
2019-01-15T06:49:26.273Z,19.10
2019-01-15T06:50:31.767Z,18.27
2019-01-15T06:51:37.877Z,17.50
2019-01-15T06:52:43.393Z,14.40
2019-01-15T06:53:49.892Z,25.10
2019-01-15T06:54:59.246Z,20.12
2019-01-15T06:56:04.408Z,19.77
2019-01-15T06:57:09.693Z,14.53
2019-01-15T06:58:14.565Z,16.55
2019-01-15T06:59:19.905Z,16.93
2019-01-15T07:00:27.006Z,15.83
2019-01-15T07:01:31.824Z,20.77
2019-01-15T07:02:37.977Z,25.95
2019-01-15T07:03:44.816Z,16.02
2019-01-15T07:04:50.350Z,20.80
2019-01-15T07:05:55.403Z,25.68
2019-01-15T07:07:05.541Z,17.82
2019-01-15T07:08:12.850Z,24.12
2019-01-15T07:09:22.883Z,16.73
2019-01-15T07:10:30.711Z,16.23
2019-01-15T07:11:35.460Z,16.75
2019-01-15T07:12:40.192Z,17.20
2019-01-15T07:13:44.989Z,19.55
2019-01-15T07:14:49.767Z,19.27
2019-01-15T07:15:55.325Z,16.62
2019-01-15T07:17:00.548Z,16.40
2019-01-15T07:18:05.529Z,21.42
2019-01-15T07:19:10.390Z,23.00
2019-01-15T07:20:15.709Z,15.32
2019-01-15T07:21:20.525Z,15.85
2019-01-15T07:22:25.421Z,35.68
2019-01-15T07:23:30.505Z,23.92
2019-01-15T07:24:35.446Z,16.80
2019-01-15T07:25:40.352Z,20.27
2019-01-15T07:26:45.249Z,17.17
2019-01-15T07:27:50.030Z,26.95
2019-01-15T07:28:54.820Z,21.85
2019-01-15T07:30:00.189Z,21.37
2019-01-15T07:31:05.115Z,17.98
2019-01-15T07:32:09.836Z,15.85
2019-01-15T07:33:14.980Z,17.35
2019-01-15T07:34:19.765Z,15.65
2019-01-15T07:35:24.589Z,14.55
2019-01-15T07:36:29.404Z,17.00
2019-01-15T07:37:37.276Z,18.65
2019-01-15T07:38:42.122Z,16.67
2019-01-15T07:39:49.705Z,15.75
2019-01-15T07:40:54.527Z,16.00
2019-01-15T07:41:59.357Z,14.87
2019-01-15T07:43:04.523Z,17.52
2019-01-15T07:44:09.357Z,14.78
2019-01-15T07:45:14.301Z,13.70
2019-01-15T07:46:19.188Z,18.27
2019-01-15T07:47:24.018Z,14.10
2019-01-15T07:48:28.778Z,13.80
2019-01-15T07:49:33.896Z,15.00
2019-01-15T07:50:38.715Z,11.38
2019-01-15T07:51:43.614Z,22.90
2019-01-15T07:52:48.755Z,22.15
2019-01-15T07:53:53.555Z,16.35
2019-01-15T07:55:00.239Z,17.90
2019-01-15T07:56:05.444Z,19.07
2019-01-15T07:57:10.353Z,18.77
2019-01-15T07:58:15.111Z,20.60
2019-01-15T07:59:19.916Z,19.32
2019-01-15T08:00:24.899Z,25.02
2019-01-15T08:01:29.845Z,17.20
2019-01-15T08:02:34.964Z,20.57
2019-01-15T08:03:39.832Z,32.50
2019-01-15T08:04:44.620Z,15.30
2019-01-15T08:05:49.449Z,19.67
2019-01-15T08:06:54.391Z,21.48
2019-01-15T08:07:59.236Z,18.10
2019-01-15T08:09:06.516Z,15.13
2019-01-15T08:10:17.215Z,20.10
2019-01-15T08:11:19.728Z,18.98
2019-01-15T08:12:27.693Z,29.23
2019-01-15T08:13:32.679Z,16.00
2019-01-15T08:14:38.396Z,18.00
2019-01-15T08:15:48.180Z,22.90
2019-01-15T08:16:53.212Z,24.57
2019-01-15T08:18:00.819Z,25.68
2019-01-15T08:19:07.507Z,20.68
2019-01-15T08:20:13.205Z,25.95
2019-01-15T08:21:18.270Z,28.00
2019-01-15T08:22:27.035Z,18.42
2019-01-15T08:23:31.821Z,22.52
2019-01-15T08:24:36.782Z,17.30
2019-01-15T08:25:41.891Z,24.92
2019-01-15T08:26:46.763Z,21.87
2019-01-15T08:27:51.495Z,25.80
2019-01-15T08:28:56.445Z,22.15
2019-01-15T08:30:28.865Z,26.90
2019-01-15T08:31:33.671Z,19.77
2019-01-15T08:32:38.642Z,27.67
2019-01-15T08:33:43.803Z,33.23
2019-01-15T08:34:48.638Z,30.62
2019-01-15T08:35:53.485Z,23.55
2019-01-15T08:36:58.360Z,21.93
2019-01-15T08:38:03.516Z,29.00
2019-01-15T08:39:09.257Z,29.42
2019-01-15T08:40:14.471Z,25.40
2019-01-15T08:41:24.863Z,30.37
2019-01-15T08:42:29.642Z,26.93
2019-01-15T08:43:34.358Z,30.27
2019-01-15T08:44:39.222Z,29.35
2019-01-15T08:45:44.007Z,24.87
2019-01-15T08:46:48.747Z,32.67
2019-01-15T08:47:57.405Z,24.72
2019-01-15T08:49:02.256Z,27.62
2019-01-15T08:50:10.394Z,37.20
2019-01-15T08:51:18.171Z,25.43
2019-01-15T08:52:22.987Z,41.28
2019-01-15T08:53:27.912Z,33.42
2019-01-15T08:54:34.944Z,31.00
2019-01-15T08:55:42.697Z,34.25
2019-01-15T08:56:48.890Z,33.23
2019-01-15T08:57:54.051Z,27.07
2019-01-15T08:58:58.843Z,32.78
2019-01-15T09:00:03.604Z,32.30
2019-01-15T09:01:08.320Z,31.77
2019-01-15T09:02:21.592Z,47.67
2019-01-15T09:03:26.629Z,28.23
2019-01-15T09:04:31.390Z,26.10
2019-01-15T09:05:37.349Z,34.55
2019-01-15T09:06:43.163Z,38.38
2019-01-15T09:07:51.060Z,33.02
2019-01-15T09:08:56.156Z,32.88
2019-01-15T09:10:00.909Z,27.93
2019-01-15T09:11:08.812Z,31.77
2019-01-15T09:12:17.664Z,28.95
2019-01-15T09:13:31.760Z,33.67
2019-01-15T09:14:39.680Z,33.18
2019-01-15T09:15:49.693Z,32.42
2019-01-15T09:16:54.496Z,34.05
2019-01-15T09:18:01.617Z,34.45
2019-01-15T09:19:06.429Z,25.15
2019-01-15T09:20:22.028Z,38.67
2019-01-15T09:21:26.789Z,36.63
2019-01-15T09:22:31.593Z,38.20
2019-01-15T09:23:36.445Z,28.70
2019-01-15T09:24:41.172Z,36.17
2019-01-15T09:25:45.917Z,37.17
2019-01-15T09:26:50.975Z,28.05
2019-01-15T09:27:55.970Z,30.45
2019-01-15T09:29:00.760Z,32.98
2019-01-15T09:30:08.290Z,40.80
2019-01-15T09:31:16.181Z,29.52
2019-01-15T09:32:21.168Z,25.75
2019-01-15T09:33:26.106Z,28.80
2019-01-15T09:34:30.920Z,31.37
2019-01-15T09:35:35.653Z,30.30
2019-01-15T09:36:40.418Z,34.75
2019-01-15T09:37:46.808Z,34.23
2019-01-15T09:38:51.693Z,37.60
2019-01-15T09:39:56.568Z,34.35
2019-01-15T09:41:01.333Z,40.90
2019-01-15T09:42:07.689Z,33.83
2019-01-15T09:43:12.549Z,43.85
2019-01-15T09:44:17.298Z,28.02
2019-01-15T09:45:26.881Z,39.98
2019-01-15T09:46:31.644Z,27.25
2019-01-15T09:47:37.976Z,34.50
2019-01-15T09:48:42.756Z,28.87
2019-01-15T09:49:47.503Z,33.53
2019-01-15T09:50:52.672Z,29.52
2019-01-15T09:51:57.454Z,33.05
2019-01-15T09:53:03.096Z,30.32
2019-01-15T09:54:10.299Z,35.95
2019-01-15T09:55:15.156Z,33.35
2019-01-15T09:56:20.143Z,28.38
2019-01-15T09:57:24.918Z,36.95
2019-01-15T09:58:31.838Z,22.02
2019-01-15T09:59:36.601Z,32.85
2019-01-15T10:00:41.326Z,29.70
2019-01-15T10:01:46.192Z,46.50
2019-01-15T10:02:51.052Z,41.15
2019-01-15T10:03:56.183Z,35.83
2019-01-15T10:05:01.169Z,33.15
2019-01-15T10:06:08.773Z,41.35
2019-01-15T10:07:13.540Z,34.27
2019-01-15T10:08:19.832Z,24.90
2019-01-15T10:09:24.960Z,25.37
2019-01-15T10:10:29.711Z,27.17
2019-01-15T10:11:34.446Z,35.08
2019-01-15T10:12:39.221Z,22.35
2019-01-15T10:13:48.296Z,31.90
2019-01-15T10:14:56.163Z,28.57
2019-01-15T10:16:00.956Z,41.60
2019-01-15T10:17:05.950Z,33.70
2019-01-15T10:18:10.668Z,27.37
2019-01-15T10:19:15.441Z,33.02
2019-01-15T10:20:22.284Z,26.07
2019-01-15T10:21:30.377Z,28.62
2019-01-15T10:22:45.714Z,24.02
2019-01-15T10:23:51.945Z,37.38
2019-01-15T10:24:56.823Z,27.45
2019-01-15T10:26:04.676Z,35.85
2019-01-15T10:27:09.685Z,27.55
2019-01-15T10:28:15.415Z,29.48
2019-01-15T10:29:21.557Z,29.42
2019-01-15T10:30:40.755Z,35.68
2019-01-15T10:32:25.680Z,30.88
2019-01-15T10:33:36.641Z,21.07
2019-01-15T10:34:43.253Z,29.37
2019-01-15T10:35:55.409Z,33.85
2019-01-15T10:36:58.612Z,31.62
2019-01-15T10:38:03.445Z,24.52
2019-01-15T10:39:12.652Z,33.10
2019-01-15T10:40:18.490Z,21.07
2019-01-15T10:41:23.465Z,33.70
2019-01-15T10:42:31.588Z,26.97
2019-01-15T10:43:39.554Z,32.15
2019-01-15T10:44:48.629Z,27.80
2019-01-15T10:45:50.801Z,30.50
2019-01-15T10:46:56.034Z,23.38
2019-01-15T10:48:02.132Z,20.55
2019-01-15T10:49:07.074Z,27.30
2019-01-15T10:50:19.711Z,23.85
2019-01-15T10:51:24.471Z,19.85
2019-01-15T10:52:29.227Z,32.13
2019-01-15T10:53:34.007Z,25.08
2019-01-15T10:54:38.965Z,27.90
2019-01-15T10:55:43.903Z,21.12
2019-01-15T10:56:50.371Z,27.13
2019-01-15T10:57:58.355Z,19.12
2019-01-15T10:59:01.584Z,40.03
2019-01-15T11:00:08.656Z,21.55
2019-01-15T11:01:13.587Z,24.80
2019-01-15T11:02:18.291Z,20.68
2019-01-15T11:03:27.381Z,20.75
2019-01-15T11:04:36.446Z,25.75
2019-01-15T11:05:41.212Z,21.42
2019-01-15T11:06:51.095Z,23.60
2019-01-15T11:07:58.777Z,22.58
2019-01-15T11:09:10.848Z,15.38
2019-01-15T11:10:19.287Z,23.57
2019-01-15T11:11:24.211Z,22.73
2019-01-15T11:12:29.260Z,25.00
2019-01-15T11:13:39.695Z,25.43
2019-01-15T11:14:47.919Z,26.23
2019-01-15T11:15:55.532Z,22.35
2019-01-15T11:17:04.238Z,20.52
2019-01-15T11:18:09.050Z,23.40
2019-01-15T11:19:13.889Z,13.85
2019-01-15T11:20:19.758Z,22.87
2019-01-15T11:21:24.860Z,21.20
2019-01-15T11:22:31.500Z,25.85
2019-01-15T11:23:36.543Z,23.12
2019-01-15T11:24:41.785Z,16.15
2019-01-15T11:25:51.175Z,18.82
2019-01-15T11:26:56.578Z,21.05
2019-01-15T11:28:02.979Z,17.40
2019-01-15T11:29:10.093Z,15.70
2019-01-15T11:30:22.293Z,18.00
2019-01-15T11:31:27.819Z,17.17
2019-01-15T11:32:32.789Z,17.62
2019-01-15T11:33:40.897Z,24.10
2019-01-15T11:34:48.185Z,33.45
2019-01-15T11:35:55.749Z,18.30
2019-01-15T11:37:00.795Z,14.43
2019-01-15T11:38:08.891Z,14.40
2019-01-15T11:39:13.791Z,19.27
2019-01-15T11:40:19.150Z,12.73
2019-01-15T11:41:27.790Z,20.72
2019-01-15T11:42:32.832Z,19.48
2019-01-15T11:43:44.332Z,16.35
2019-01-15T11:44:52.171Z,19.15
2019-01-15T11:45:58.720Z,17.73
2019-01-15T11:47:04.921Z,13.03
2019-01-15T11:48:11.329Z,17.90
2019-01-15T11:49:17.395Z,11.22
2019-01-15T11:50:23.607Z,14.28
2019-01-15T11:51:30.474Z,12.07
2019-01-15T11:52:36.322Z,13.30
2019-01-15T11:53:42.244Z,15.90
2019-01-15T11:54:49.890Z,23.10
2019-01-15T11:55:57.235Z,10.18
2019-01-15T11:57:05.672Z,17.62
2019-01-15T11:58:10.625Z,10.63
2019-01-15T11:59:17.033Z,17.50
2019-01-15T12:00:35.215Z,18.17
2019-01-15T12:01:49.302Z,13.65
2019-01-15T12:03:22.229Z,15.15
2019-01-15T12:04:40.828Z,19.45
2019-01-15T12:05:58.492Z,28.12
2019-01-15T12:07:34.361Z,24.32
2019-01-15T12:09:10.705Z,10.80
2019-01-15T12:10:43.291Z,22.27
2019-01-15T12:12:09.949Z,16.50
2019-01-15T12:13:29.097Z,12.82
2019-01-15T12:14:51.659Z,17.12
2019-01-15T12:16:28.343Z,12.45
2019-01-15T12:17:54.977Z,19.48
2019-01-15T12:19:09.075Z,11.57
2019-01-15T12:20:45.538Z,23.87
2019-01-15T12:22:09.184Z,8.20
2019-01-15T12:23:44.734Z,14.93
2019-01-15T12:25:06.965Z,21.75
2019-01-15T12:26:32.506Z,14.90
2019-01-15T12:27:55.288Z,18.15
2019-01-15T12:29:25.244Z,17.85
2019-01-15T12:30:55.093Z,13.40
2019-01-15T12:32:21.234Z,16.73
2019-01-15T12:33:44.060Z,15.30
2019-01-15T12:35:10.550Z,12.25
2019-01-15T12:36:24.023Z,21.90
2019-01-15T12:37:46.156Z,13.20
2019-01-15T12:39:10.236Z,14.13
2019-01-15T12:40:42.676Z,18.67
2019-01-15T12:41:58.552Z,11.08
2019-01-15T12:43:22.451Z,15.30
2019-01-15T12:44:44.962Z,14.98
2019-01-15T12:46:07.720Z,10.88
2019-01-15T12:47:40.145Z,18.73
2019-01-15T12:49:09.413Z,16.42
2019-01-15T12:50:33.588Z,11.73
2019-01-15T12:52:09.352Z,9.80
2019-01-15T12:53:31.286Z,14.98
2019-01-15T12:54:46.003Z,14.53
2019-01-15T12:56:10.419Z,11.75
2019-01-15T12:57:40.361Z,12.47
2019-01-15T12:59:19.260Z,18.70
2019-01-15T13:00:51.716Z,8.13
2019-01-15T13:02:15.740Z,10.50
2019-01-15T13:03:54.450Z,16.95
2019-01-15T13:05:24.185Z,10.15
2019-01-15T13:06:46.875Z,13.85
2019-01-15T13:08:10.009Z,14.85
2019-01-15T13:09:34.000Z,9.58
2019-01-15T13:10:50.474Z,8.15
2019-01-15T13:12:18.120Z,11.65
2019-01-15T13:13:41.784Z,13.13
2019-01-15T13:15:04.041Z,13.65
2019-01-15T13:16:39.680Z,10.50
2019-01-15T13:18:01.968Z,23.65
2019-01-15T13:19:40.792Z,15.53
2019-01-15T13:21:13.869Z,16.20
2019-01-15T13:22:41.021Z,12.28
2019-01-15T13:24:10.689Z,13.28
2019-01-15T13:25:34.714Z,12.93
2019-01-15T13:27:11.228Z,7.90
2019-01-15T13:28:33.896Z,13.32
2019-01-15T13:29:57.882Z,9.93
2019-01-15T13:31:30.868Z,11.28
2019-01-15T13:32:58.299Z,10.40
2019-01-15T13:34:40.336Z,15.55
2019-01-15T13:36:02.896Z,10.43
2019-01-15T13:37:27.613Z,16.52
2019-01-15T13:39:06.343Z,20.75
2019-01-15T13:40:29.620Z,18.82
2019-01-15T13:42:01.080Z,18.60
2019-01-15T13:43:24.087Z,17.00
2019-01-15T13:44:56.990Z,23.52
2019-01-15T13:46:25.912Z,12.45
2019-01-15T13:48:08.144Z,14.55
2019-01-15T13:49:31.619Z,17.12
2019-01-15T13:51:15.074Z,12.68
2019-01-15T13:52:41.831Z,12.45
2019-01-15T13:54:29.084Z,12.65
2019-01-15T13:55:54.306Z,13.15
2019-01-15T13:57:22.604Z,16.60
2019-01-15T13:58:47.821Z,14.95
2019-01-15T14:00:19.888Z,13.10
2019-01-15T14:01:55.637Z,8.68
2019-01-15T14:03:17.764Z,15.03
2019-01-15T14:05:10.367Z,9.25
2019-01-15T14:06:39.627Z,17.10
2019-01-15T14:08:09.104Z,11.45
2019-01-15T14:09:47.885Z,16.62
2019-01-15T14:11:23.573Z,11.48
2019-01-15T14:12:54.714Z,16.07
2019-01-15T14:14:33.191Z,19.30
2019-01-15T14:16:07.735Z,9.90
2019-01-15T14:17:37.715Z,18.40
2019-01-15T14:19:02.908Z,14.45
2019-01-15T14:20:26.407Z,12.43
2019-01-15T14:22:06.049Z,15.75
2019-01-15T14:23:29.433Z,8.73
2019-01-15T14:24:47.050Z,9.08
2019-01-15T14:26:13.563Z,13.35
2019-01-15T14:27:55.142Z,15.32
2019-01-15T14:29:36.920Z,12.10
2019-01-15T14:31:02.109Z,20.68
2019-01-15T14:32:32.221Z,36.70
2019-01-15T14:33:56.187Z,12.20
2019-01-15T14:35:22.990Z,7.55
2019-01-15T14:36:40.384Z,18.80
2019-01-15T14:38:08.985Z,16.40
2019-01-15T14:39:31.764Z,17.95
2019-01-15T14:40:54.077Z,18.05
2019-01-15T14:42:27.405Z,10.20
2019-01-15T14:43:54.340Z,13.40
2019-01-15T14:45:33.109Z,16.20
2019-01-15T14:47:08.568Z,18.12
2019-01-15T14:48:32.286Z,8.60
2019-01-15T14:50:05.372Z,10.40
2019-01-15T14:51:35.130Z,15.63
2019-01-15T14:53:06.434Z,16.17